Time;durP1;ratioP1;P1;durP2;ratioP2;P2;SDS_P1;SDS_P2;PMS_P1;PMS_P2;Temp;Humidity;BMP_temperature;BMP_pressure;BME280_temperature;BME280_humidity;BME280_pressure;Samples;Min_cycle;Max_cycle;Signal;HPM_P1;HPM_P2
2021/07/30 00:00:41;;;;;;;2.47;0.80;;;;;;;18.14;67.59;99739.44;5959231;29;20210;-76
2021/07/30 00:03:47;;;;;;;1.73;1.08;;;;;;;18.10;66.91;99743.91;5959073;30;20388;-76
2021/07/30 00:07:02;;;;;;;0.80;0.80;;;;;;;18.00;67.00;99738.50;5958998;30;20411;-76
2021/07/30 00:10:07;;;;;;;1.95;0.90;;;;;;;18.00;65.89;99738.50;5960324;30;20193;-76
2021/07/30 00:13:16;;;;;;;0.85;0.82;;;;;;;18.05;65.35;99741.22;5960154;30;20194;-76
2021/07/30 00:16:21;;;;;;;0.90;0.90;;;;;;;18.02;65.20;99741.81;5958973;30;20493;-76
2021/07/30 00:19:28;;;;;;;1.20;1.10;;;;;;;18.07;64.86;99738.97;5959361;30;20194;-76
2021/07/30 00:22:32;;;;;;;1.30;1.17;;;;;;;18.01;64.78;99734.63;5958660;30;20540;-76
2021/07/30 00:25:37;;;;;;;1.05;1.05;;;;;;;17.92;64.81;99736.38;5957890;29;20281;-76
2021/07/30 00:28:41;;;;;;;0.93;0.93;;;;;;;17.80;64.93;99738.69;5959483;30;20194;-76
2021/07/30 00:31:49;;;;;;;1.15;1.00;;;;;;;17.78;65.96;99739.00;5959416;30;20311;-76
2021/07/30 00:34:54;;;;;;;1.08;1.00;;;;;;;17.79;66.16;99726.03;5959491;30;20193;-76
2021/07/30 00:37:59;;;;;;;0.85;0.80;;;;;;;17.72;66.20;99725.56;5959267;30;20193;-76
2021/07/30 00:41:03;;;;;;;0.80;0.80;;;;;;;17.68;65.07;99719.78;5958308;30;20395;-76
2021/07/30 00:44:10;;;;;;;0.90;0.90;;;;;;;17.69;66.05;99715.09;5959157;30;20197;-75
2021/07/30 00:47:15;;;;;;;1.00;1.00;;;;;;;17.64;65.68;99723.41;5959353;30;20221;-76
2021/07/30 00:50:23;;;;;;;2.17;0.90;;;;;;;17.60;66.20;99711.31;5957976;30;20235;-76
2021/07/30 00:53:28;;;;;;;1.13;1.00;;;;;;;17.66;65.27;99721.19;5958106;30;20194;-76
2021/07/30 00:56:32;;;;;;;0.98;0.90;;;;;;;17.63;65.98;99710.72;5958894;30;20232;-76
2021/07/30 00:59:37;;;;;;;1.20;1.10;;;;;;;17.59;66.14;99693.13;5958756;30;20204;-76
2021/07/30 01:02:41;;;;;;;2.72;1.00;;;;;;;17.55;66.29;99703.09;5959110;30;20209;-76
2021/07/30 01:05:47;;;;;;;0.90;0.90;;;;;;;17.56;66.43;99688.19;5957555;30;20259;-76
2021/07/30 01:08:51;;;;;;;0.90;0.90;;;;;;;17.53;66.09;99692.34;5958893;30;20219;-76
2021/07/30 01:11:56;;;;;;;1.58;1.02;;;;;;;17.36;66.76;99684.47;5957527;30;20382;-76
2021/07/30 01:15:03;;;;;;;1.33;1.08;;;;;;;17.24;67.10;99686.78;5958516;30;20229;-76
2021/07/30 01:18:11;;;;;;;2.63;1.00;;;;;;;17.25;67.32;99690.38;5958209;30;20257;-76
2021/07/30 01:21:23;;;;;;;0.95;0.90;;;;;;;17.17;67.39;99680.78;5958307;30;20194;-76
2021/07/30 01:24:29;;;;;;;0.80;0.80;;;;;;;17.22;66.64;99685.41;5958235;30;20200;-76
2021/07/30 01:27:33;;;;;;;1.10;1.00;;;;;;;17.15;67.40;99682.19;5957246;30;20217;-76
2021/07/30 01:30:37;;;;;;;2.25;1.20;;;;;;;17.15;67.16;99682.19;5958232;30;20235;-75
2021/07/30 01:33:43;;;;;;;5.75;0.90;;;;;;;17.21;67.41;99665.31;5958508;29;20198;-75
2021/07/30 01:36:47;;;;;;;2.97;1.10;;;;;;;17.21;66.40;99670.81;5958130;29;20246;-76
2021/07/30 01:39:53;;;;;;;1.13;1.10;;;;;;;17.20;65.78;99668.38;5957937;30;20266;-76
2021/07/30 01:42:57;;;;;;;0.90;0.90;;;;;;;17.19;66.34;99662.03;5958330;30;20200;-76
2021/07/30 01:46:01;;;;;;;1.38;0.90;;;;;;;17.21;66.43;99648.75;5957670;29;20284;-76
2021/07/30 01:49:05;;;;;;;0.80;0.80;;;;;;;17.19;66.88;99651.00;5957820;30;20366;-76
2021/07/30 01:52:11;;;;;;;0.90;0.90;;;;;;;17.18;66.96;99643.81;5956905;30;20193;-76
2021/07/30 01:55:17;;;;;;;0.95;0.95;;;;;;;17.26;67.10;99645.97;5956970;30;20198;-76
2021/07/30 01:58:21;;;;;;;2.30;1.77;;;;;;;17.14;67.96;99630.91;5957208;30;20198;-76
2021/07/30 02:01:27;;;;;;;2.30;1.13;;;;;;;17.29;67.22;99634.38;5956955;29;20204;-76
2021/07/30 02:04:32;;;;;;;1.25;1.00;;;;;;;17.20;67.02;99633.34;5956577;30;20248;-76
2021/07/30 02:07:39;;;;;;;1.58;1.05;;;;;;;17.06;68.51;99629.59;5956953;30;20289;-76
2021/07/30 02:10:49;;;;;;;1.10;1.10;;;;;;;17.11;67.88;99620.47;5957998;30;20194;-76
2021/07/30 02:17:15;;;;;;;0.95;0.95;;;;;;;17.13;67.90;99624.59;5957193;30;20265;-76
2021/07/30 02:20:19;;;;;;;0.70;0.70;;;;;;;17.13;67.86;99619.06;5956634;30;20542;-76
2021/07/30 02:23:26;;;;;;;1.42;1.20;;;;;;;16.78;69.35;99625.69;5957606;30;20204;-76
2021/07/30 02:26:32;;;;;;;2.28;1.13;;;;;;;16.90;68.57;99622.56;5957555;30;20270;-76
2021/07/30 02:29:36;;;;;;;1.27;0.90;;;;;;;16.92;68.89;99618.41;5956928;30;20200;-76
2021/07/30 02:32:42;;;;;;;1.15;1.00;;;;;;;16.74;69.49;99623.81;5957595;29;20193;-76
2021/07/30 02:35:49;;;;;;;1.15;1.00;;;;;;;16.69;69.68;99618.34;5957505;30;20201;-75
2021/07/30 02:38:53;;;;;;;1.02;0.95;;;;;;;16.84;69.36;99615.47;5957049;30;20197;-76
2021/07/30 02:41:58;;;;;;;1.38;1.05;;;;;;;16.86;69.74;99618.75;5957847;30;20193;-76
2021/07/30 02:45:03;;;;;;;1.05;1.00;;;;;;;16.88;69.73;99613.78;5957663;30;20193;-75
2021/07/30 02:48:12;;;;;;;1.60;0.98;;;;;;;16.99;69.26;99607.09;5956392;29;20524;-76
2021/07/30 02:51:17;;;;;;;0.98;0.98;;;;;;;17.00;69.40;99608.72;5961432;30;20229;-75
2021/07/30 02:54:24;;;;;;;1.10;1.10;;;;;;;16.88;69.28;99605.50;5960876;30;20440;-76
2021/07/30 02:57:30;;;;;;;1.02;1.02;;;;;;;16.97;68.90;99603.81;5961666;29;20261;-76
2021/07/30 03:00:34;;;;;;;0.95;0.95;;;;;;;17.01;69.08;99601.28;5961496;30;20194;-76
2021/07/30 03:03:38;;;;;;;1.05;1.05;;;;;;;17.01;68.74;99588.31;5961741;29;20312;-76
2021/07/30 03:06:42;;;;;;;3.75;1.30;;;;;;;17.17;68.16;99587.09;5960776;30;20284;-76
2021/07/30 03:09:46;;;;;;;1.67;0.95;;;;;;;17.11;68.52;99588.22;5961255;30;20239;-76
2021/07/30 03:12:55;;;;;;;1.20;1.20;;;;;;;17.08;68.99;99593.47;5960424;29;20512;-76
2021/07/30 03:16:02;;;;;;;0.88;0.88;;;;;;;17.05;68.76;99594.88;5961440;30;20258;-76
2021/07/30 03:19:06;;;;;;;2.13;1.10;;;;;;;17.10;68.89;99589.31;5961195;29;20229;-76
2021/07/30 03:22:11;;;;;;;1.90;1.10;;;;;;;17.15;69.00;99578.28;5960118;30;20385;-75
2021/07/30 03:25:15;;;;;;;1.38;0.93;;;;;;;17.05;69.28;99583.88;5960109;30;20454;-76
2021/07/30 03:28:21;;;;;;;1.10;1.10;;;;;;;17.16;69.33;99579.91;5961214;30;20249;-76
2021/07/30 03:31:25;;;;;;;1.20;0.90;;;;;;;17.27;68.47;99564.94;5960636;29;20257;-76
2021/07/30 03:34:32;;;;;;;1.00;1.00;;;;;;;17.28;68.84;99572.06;5960223;29;20315;-76
2021/07/30 03:37:37;;;;;;;3.65;1.02;;;;;;;17.35;68.45;99572.56;5959856;30;20394;-76
2021/07/30 03:40:46;;;;;;;2.47;1.17;;;;;;;17.34;68.72;99564.56;5959646;30;20257;-77
2021/07/30 03:43:51;;;;;;;3.35;1.00;;;;;;;17.36;68.30;99552.13;5960943;30;20257;-76
2021/07/30 03:46:55;;;;;;;4.43;1.30;;;;;;;17.42;68.45;99556.50;5959514;30;20655;-77
2021/07/30 03:50:00;;;;;;;1.95;0.90;;;;;;;17.31;68.98;99549.44;5960273;30;20201;-76
2021/07/30 03:53:07;;;;;;;0.95;0.95;;;;;;;17.42;68.44;99542.72;5961073;30;20194;-76
2021/07/30 03:56:15;;;;;;;1.15;1.15;;;;;;;17.29;69.05;99539.81;5960353;30;20194;-76
2021/07/30 03:59:20;;;;;;;1.10;1.10;;;;;;;17.42;68.32;99534.44;5960356;30;20204;-76
2021/07/30 04:02:35;;;;;;;0.95;0.95;;;;;;;17.48;68.21;99535.22;5958942;29;20270;-76
2021/07/30 04:05:40;;;;;;;0.90;0.90;;;;;;;17.44;68.57;99523.94;5959588;30;20305;-76
2021/07/30 04:08:47;;;;;;;1.10;1.10;;;;;;;17.48;68.44;99524.19;5959415;30;20225;-76
2021/07/30 04:11:51;;;;;;;2.25;1.00;;;;;;;17.50;68.43;99520.00;5959054;30;20373;-75
2021/07/30 04:14:57;;;;;;;1.63;0.90;;;;;;;17.43;68.76;99527.81;5959472;30;20201;-76
2021/07/30 04:18:01;;;;;;;2.15;1.13;;;;;;;17.48;68.77;99526.94;5959829;29;20264;-76
2021/07/30 04:21:07;;;;;;;1.85;1.00;;;;;;;17.40;69.60;99516.56;5959978;30;20201;-76
2021/07/30 04:24:11;;;;;;;1.00;1.00;;;;;;;17.28;71.20;99511.44;5958794;30;20364;-76
2021/07/30 04:27:19;;;;;;;0.80;0.80;;;;;;;17.15;72.01;99506.63;5959606;30;20194;-76
2021/07/30 04:30:25;;;;;;;1.13;1.13;;;;;;;17.12;72.93;99495.38;5959729;30;20229;-76
2021/07/30 04:33:29;;;;;;;1.95;1.10;;;;;;;17.27;72.00;99501.53;5960177;30;20235;-76
2021/07/30 04:36:33;;;;;;;1.15;1.08;;;;;;;17.30;72.12;99491.84;5958591;30;20501;-76
2021/07/30 04:39:37;;;;;;;4.85;1.00;;;;;;;17.33;72.09;99503.09;5958837;29;20229;-76
2021/07/30 04:42:44;;;;;;;1.35;1.20;;;;;;;17.33;71.47;99496.78;5959764;30;20260;-76
2021/07/30 04:45:50;;;;;;;1.00;1.00;;;;;;;17.41;71.28;99499.69;5959404;29;20194;-76
2021/07/30 04:48:54;;;;;;;1.15;1.10;;;;;;;17.31;72.03;99487.97;5958169;30;20331;-76
2021/07/30 04:51:58;;;;;;;1.17;0.95;;;;;;;17.35;72.05;99494.56;5958201;30;20497;-76
2021/07/30 04:55:02;;;;;;;1.10;1.00;;;;;;;17.32;72.90;99484.94;5958583;30;20201;-76
2021/07/30 04:58:06;;;;;;;2.08;1.98;;;;;;;17.35;72.92;99489.03;5959314;29;20246;-76
2021/07/30 05:01:12;;;;;;;1.48;1.10;;;;;;;17.28;73.22;99477.56;5958061;30;20443;-76
2021/07/30 05:04:18;;;;;;;2.22;1.20;;;;;;;17.35;72.90;99473.31;5958680;30;20358;-76
2021/07/30 05:07:22;;;;;;;4.95;1.20;;;;;;;17.31;73.60;99471.44;5958930;30;20193;-76
2021/07/30 05:10:26;;;;;;;1.13;1.10;;;;;;;17.38;72.80;99472.72;5959058;30;20226;-76
2021/07/30 05:13:30;;;;;;;1.10;1.10;;;;;;;17.49;72.18;99474.25;5957390;29;20217;-76
2021/07/30 05:16:37;;;;;;;1.60;1.23;;;;;;;17.33;72.27;99447.97;5957492;29;20280;-76
2021/07/30 05:19:43;;;;;;;1.25;1.25;;;;;;;17.40;72.44;99470.50;5957620;30;20397;-76
2021/07/30 05:22:47;;;;;;;1.13;1.13;;;;;;;17.43;72.33;99453.38;5958882;30;20244;-76
2021/07/30 05:25:53;;;;;;;1.35;1.25;;;;;;;17.39;72.82;99457.81;5958690;30;20232;-75
2021/07/30 05:28:57;;;;;;;1.20;1.17;;;;;;;17.40;72.89;99448.44;5958328;30;20221;-74
2021/07/30 05:32:04;;;;;;;1.52;1.23;;;;;;;17.48;72.67;99445.03;5958871;30;20194;-77
2021/07/30 05:35:09;;;;;;;1.67;1.40;;;;;;;17.33;73.75;99464.50;5958301;30;20198;-76
2021/07/30 05:38:14;;;;;;;1.20;1.10;;;;;;;17.38;73.30;99456.16;5958236;30;20201;-76
2021/07/30 05:41:18;;;;;;;1.65;1.10;;;;;;;17.43;73.16;99464.41;5958413;29;20260;-76
2021/07/30 05:44:22;;;;;;;1.27;1.23;;;;;;;17.38;72.84;99458.94;5957228;30;20261;-76
2021/07/30 05:47:28;;;;;;;2.67;1.52;;;;;;;17.55;71.86;99449.38;5957703;30;20219;-76
2021/07/30 05:50:35;;;;;;;1.20;1.10;;;;;;;17.51;72.02;99463.72;5958085;30;20308;-77
2021/07/30 05:53:39;;;;;;;1.50;1.50;;;;;;;17.47;72.00;99440.63;5958542;30;20257;-76
2021/07/30 05:56:43;;;;;;;5.82;1.35;;;;;;;17.48;71.50;99434.00;5957932;30;20201;-75
2021/07/30 05:59:48;;;;;;;1.00;1.00;;;;;;;17.55;71.84;99435.59;5956788;29;20495;-75
2021/07/30 06:02:53;;;;;;;1.30;1.30;;;;;;;17.62;71.24;99433.28;5957065;30;20295;-75
2021/07/30 06:05:58;;;;;;;1.00;1.00;;;;;;;17.66;69.88;99439.88;5958030;29;20273;-75
2021/07/30 06:09:02;;;;;;;2.55;1.23;;;;;;;17.56;70.36;99431.75;5957549;30;20225;-75
2021/07/30 06:12:06;;;;;;;1.58;1.30;;;;;;;17.42;70.84;99429.69;5956578;30;20282;-75
2021/07/30 06:15:11;;;;;;;7.03;1.40;;;;;;;17.62;70.28;99422.25;5956824;30;20299;-75
2021/07/30 06:18:18;;;;;;;1.30;1.30;;;;;;;17.63;70.15;99412.88;5956680;30;20494;-75
2021/07/30 06:21:22;;;;;;;1.30;1.20;;;;;;;17.54;69.97;99407.19;5957794;30;20213;-75
2021/07/30 06:24:26;;;;;;;1.30;1.30;;;;;;;17.66;69.64;99406.78;5958114;29;20481;-75
2021/07/30 06:27:34;;;;;;;1.58;1.33;;;;;;;17.60;70.08;99402.44;5961474;30;20243;-75
2021/07/30 06:30:38;;;;;;;1.55;1.33;;;;;;;17.55;70.38;99405.28;5961907;30;20217;-75
2021/07/30 06:33:44;;;;;;;1.20;1.20;;;;;;;17.55;69.83;99399.75;5961956;29;20268;-75
2021/07/30 06:36:48;;;;;;;1.60;1.50;;;;;;;17.71;68.48;99393.75;5961845;30;20335;-75
2021/07/30 06:39:52;;;;;;;1.52;1.52;;;;;;;17.67;69.34;99389.13;5962055;30;20201;-75
2021/07/30 06:42:57;;;;;;;3.13;1.70;;;;;;;17.75;68.93;99382.91;5960255;30;20209;-75
2021/07/30 06:46:02;;;;;;;3.70;1.80;;;;;;;17.78;69.29;99376.81;5961099;30;20302;-75
2021/07/30 06:49:09;;;;;;;2.83;1.55;;;;;;;17.84;69.10;99378.38;5960665;30;20449;-75
2021/07/30 06:52:14;;;;;;;1.40;1.40;;;;;;;17.90;69.64;99374.41;5961602;30;20235;-75
2021/07/30 06:55:19;;;;;;;1.50;1.45;;;;;;;17.86;70.32;99373.38;5962298;30;20247;-75
2021/07/30 06:58:23;;;;;;;1.60;1.50;;;;;;;17.90;70.79;99374.41;5961805;30;20382;-75
2021/07/30 07:01:27;;;;;;;3.70;1.30;;;;;;;17.96;70.79;99367.69;5960248;29;20544;-75
2021/07/30 07:04:35;;;;;;;2.38;1.42;;;;;;;18.03;70.24;99373.63;5960446;30;20244;-75
2021/07/30 07:07:39;;;;;;;2.35;1.60;;;;;;;17.86;71.60;99368.69;5961606;30;20225;-75
2021/07/30 07:10:44;;;;;;;1.63;1.52;;;;;;;17.70;72.28;99369.19;5961403;30;20270;-76
2021/07/30 07:13:48;;;;;;;2.28;1.40;;;;;;;17.84;71.59;99370.09;5961246;30;20201;-75
2021/07/30 07:16:52;;;;;;;5.90;2.00;;;;;;;17.83;71.56;99362.94;5960186;29;20457;-75
2021/07/30 07:19:58;;;;;;;3.72;2.10;;;;;;;17.87;71.40;99358.47;5960012;30;20424;-75
2021/07/30 07:23:02;;;;;;;4.97;1.45;;;;;;;17.88;72.17;99349.06;5961272;30;20194;-75
2021/07/30 07:26:08;;;;;;;1.88;1.48;;;;;;;17.94;72.47;99347.88;5959940;30;20566;-75
2021/07/30 07:29:13;;;;;;;4.30;1.60;;;;;;;18.06;71.83;99350.97;5959799;30;20245;-75
2021/07/30 07:32:17;;;;;;;1.52;1.52;;;;;;;18.06;72.71;99339.94;5960267;30;20194;-75
2021/07/30 07:35:23;;;;;;;2.38;2.10;;;;;;;18.29;71.74;99332.63;5959750;29;20253;-75
2021/07/30 07:38:27;;;;;;;3.30;1.50;;;;;;;18.35;71.13;99321.19;5960916;30;20243;-75
2021/07/30 07:41:31;;;;;;;1.50;1.40;;;;;;;18.17;72.34;99324.84;5960820;30;20229;-75
2021/07/30 07:44:36;;;;;;;2.20;1.70;;;;;;;18.04;72.90;99326.44;5959478;30;20216;-75
2021/07/30 07:47:40;;;;;;;1.88;1.60;;;;;;;17.86;74.54;99318.19;5959875;30;20194;-75
2021/07/30 07:50:45;;;;;;;1.80;1.77;;;;;;;18.14;73.01;99315.22;5959480;30;20228;-75
2021/07/30 07:53:50;;;;;;;1.60;1.55;;;;;;;18.36;72.17;99299.94;5960560;30;20194;-75
2021/07/30 07:56:54;;;;;;;4.80;1.75;;;;;;;18.41;71.49;99311.69;5960376;30;20194;-75
2021/07/30 07:59:59;;;;;;;2.38;1.73;;;;;;;18.35;72.58;99293.59;5960350;30;20265;-75
2021/07/30 08:03:06;;;;;;;1.77;1.60;;;;;;;18.64;71.16;99296.91;5960242;30;20209;-76
2021/07/30 08:06:18;;;;;;;8.05;1.88;;;;;;;18.73;70.70;99289.53;5960133;30;20200;-75
2021/07/30 08:09:22;;;;;;;1.67;1.58;;;;;;;18.76;69.88;99282.59;5960147;30;20284;-75
2021/07/30 08:12:28;;;;;;;2.55;1.52;;;;;;;18.84;69.72;99279.09;5959452;30;20259;-75
2021/07/30 08:15:33;;;;;;;1.90;1.80;;;;;;;18.88;69.70;99265.47;5958429;30;20492;-76
2021/07/30 08:18:38;;;;;;;2.58;1.65;;;;;;;18.96;69.12;99273.03;5959609;30;20204;-75
2021/07/30 08:21:43;;;;;;;1.88;1.77;;;;;;;19.07;68.73;99263.41;5959326;30;20225;-75
2021/07/30 08:24:47;;;;;;;1.63;1.48;;;;;;;19.11;69.36;99256.94;5959672;30;20194;-75
2021/07/30 08:27:51;;;;;;;4.20;1.67;;;;;;;19.19;68.88;99263.69;5959429;30;20198;-75
2021/07/30 08:30:55;;;;;;;3.60;1.60;;;;;;;19.16;69.52;99254.06;5958460;30;20605;-75
2021/07/30 08:34:00;;;;;;;1.60;1.60;;;;;;;19.03;69.82;99259.63;5959593;30;20194;-75
2021/07/30 08:37:08;;;;;;;1.73;1.63;;;;;;;18.99;70.23;99250.31;5959463;30;20194;-75
2021/07/30 08:40:14;;;;;;;2.47;1.67;;;;;;;19.13;69.17;99242.81;5958855;30;20246;-75
2021/07/30 08:43:18;;;;;;;1.65;1.65;;;;;;;19.11;68.55;99250.59;5958931;30;20226;-75
2021/07/30 08:46:25;;;;;;;9.40;1.80;;;;;;;19.13;69.23;99248.34;5957427;29;20200;-75
2021/07/30 08:49:33;;;;;;;2.05;1.60;;;;;;;19.00;70.24;99238.16;5959418;29;20200;-75
2021/07/30 08:52:42;;;;;;;1.83;1.73;;;;;;;19.13;69.11;99248.34;5958315;30;20225;-76
2021/07/30 08:55:47;;;;;;;1.83;1.70;;;;;;;19.12;68.41;99241.19;5958717;30;20197;-76
2021/07/30 08:58:51;;;;;;;1.98;1.83;;;;;;;19.35;67.69;99240.06;5959555;30;20260;-76
2021/07/30 09:01:56;;;;;;;1.88;1.70;;;;;;;19.36;67.54;99236.19;5958776;29;20216;-76
2021/07/30 09:05:24;;;;;;;1.70;1.60;;;;;;;19.39;67.01;99241.09;5958915;30;20311;-76
2021/07/30 09:08:29;;;;;;;1.75;1.65;;;;;;;19.43;67.19;99236.59;5958637;30;20194;-76
2021/07/30 09:11:41;;;;;;;2.00;1.60;;;;;;;19.36;67.97;99241.72;5958554;30;20252;-76
2021/07/30 09:14:46;;;;;;;2.03;1.40;;;;;;;19.35;67.88;99231.78;5958813;30;20201;-76
2021/07/30 09:17:50;;;;;;;1.50;1.50;;;;;;;19.48;67.03;99233.72;5958983;30;20225;-76
2021/07/30 09:20:54;;;;;;;1.50;1.50;;;;;;;19.56;65.92;99224.66;5957676;30;20197;-76
2021/07/30 09:24:01;;;;;;;2.58;2.40;;;;;;;19.55;66.16;99228.56;5958353;30;20261;-76
2021/07/30 09:27:08;;;;;;;1.50;1.50;;;;;;;19.44;66.88;99227.16;5957659;30;20194;-76
2021/07/30 09:30:13;;;;;;;1.63;1.40;;;;;;;19.52;66.49;99223.63;5957317;30;20400;-76
2021/07/30 09:33:25;;;;;;;1.50;1.40;;;;;;;19.63;66.56;99213.16;5958665;30;20259;-76
2021/07/30 09:36:40;;;;;;;1.20;1.20;;;;;;;19.90;65.41;99208.25;5958387;30;20197;-76
2021/07/30 09:39:54;;;;;;;1.95;1.38;;;;;;;19.66;66.31;99213.34;5957173;30;20278;-76
2021/07/30 09:43:22;;;;;;;1.27;1.27;;;;;;;19.86;66.93;99212.00;5957120;30;20395;-76
2021/07/30 09:46:27;;;;;;;1.45;1.35;;;;;;;19.89;66.77;99212.19;5957984;30;20201;-75
2021/07/30 09:49:39;;;;;;;1.20;1.20;;;;;;;19.94;70.54;99203.75;5958573;30;20200;-75
2021/07/30 09:52:44;;;;;;;1.40;1.40;;;;;;;19.88;69.85;99207.78;5957876;29;20292;-75
2021/07/30 09:55:50;;;;;;;1.70;1.60;;;;;;;19.91;71.19;99204.38;5956811;30;20491;-76
2021/07/30 09:58:57;;;;;;;1.45;1.40;;;;;;;19.96;71.41;99217.25;5957789;29;20193;-76
2021/07/30 10:02:02;;;;;;;1.60;1.50;;;;;;;19.94;70.60;99209.28;5957791;30;20276;-76
2021/07/30 10:05:11;;;;;;;1.67;1.65;;;;;;;19.94;71.38;99203.75;5956829;30;20234;-76
2021/07/30 10:08:17;;;;;;;1.83;1.75;;;;;;;20.00;70.89;99208.00;5957417;29;20220;-77
2021/07/30 10:11:23;;;;;;;1.70;1.70;;;;;;;20.00;71.74;99221.81;5956579;30;20508;-76
2021/07/30 10:14:29;;;;;;;1.50;1.40;;;;;;;19.85;72.42;99221.44;5956336;30;20508;-76
2021/07/30 10:17:35;;;;;;;1.60;1.60;;;;;;;19.83;73.23;99227.28;5957333;30;20269;-76
2021/07/30 10:20:43;;;;;;;1.50;1.20;;;;;;;19.90;72.73;99219.34;5957146;30;20194;-76
2021/07/30 10:23:51;;;;;;;1.27;1.15;;;;;;;19.83;72.13;99218.97;5956249;30;20217;-76
2021/07/30 10:27:01;;;;;;;1.10;1.10;;;;;;;19.86;71.20;99212.81;5957573;30;20201;-76
2021/07/30 10:30:11;;;;;;;1.05;1.05;;;;;;;19.93;72.57;99215.94;5956613;30;20278;-77
2021/07/30 10:33:55;;;;;;;1.40;1.30;;;;;;;19.82;71.23;99206.25;5957324;30;20221;-76
2021/07/30 10:37:01;;;;;;;1.30;1.30;;;;;;;19.80;70.94;99211.31;5957447;30;20235;-76
2021/07/30 10:40:22;;;;;;;1.25;1.25;;;;;;;19.95;72.45;99199.81;5957446;30;20259;-76
2021/07/30 10:43:28;;;;;;;1.50;1.20;;;;;;;19.94;70.93;99203.75;5956087;29;20429;-76
2021/07/30 10:46:33;;;;;;;1.10;1.10;;;;;;;20.00;69.29;99202.44;5956158;30;20457;-76
2021/07/30 10:49:40;;;;;;;1.20;1.10;;;;;;;20.12;68.96;99203.81;5957480;30;20194;-76
2021/07/30 10:52:44;;;;;;;0.90;0.90;;;;;;;20.08;67.06;99208.38;5956837;30;20256;-76
2021/07/30 10:55:48;;;;;;;0.82;0.82;;;;;;;20.15;67.65;99197.66;5956877;30;20194;-76
2021/07/30 10:59:06;;;;;;;0.80;0.80;;;;;;;20.29;65.97;99198.38;5956053;30;20453;-76
2021/07/30 11:02:12;;;;;;;1.20;1.20;;;;;;;20.28;67.44;99196.75;5957074;29;20214;-76
2021/07/30 11:05:17;;;;;;;1.35;1.00;;;;;;;20.40;66.95;99189.47;5956132;30;20252;-76
2021/07/30 11:08:21;;;;;;;1.77;1.10;;;;;;;20.49;65.63;99189.50;5956913;29;20260;-76
2021/07/30 11:11:38;;;;;;;1.20;1.20;;;;;;;20.56;65.18;99187.06;5958625;29;20450;-76
2021/07/30 11:14:45;;;;;;;0.80;0.80;;;;;;;20.72;63.97;99185.50;5959565;29;20210;-76
2021/07/30 11:17:50;;;;;;;1.00;0.98;;;;;;;20.78;62.54;99186.94;5960050;29;20572;-76
2021/07/30 11:20:58;;;;;;;0.88;0.88;;;;;;;20.77;62.03;99196.41;5961080;29;20257;-77
2021/07/30 11:24:03;;;;;;;0.90;0.80;;;;;;;20.55;60.47;99202.06;5960074;30;20202;-77
2021/07/30 11:27:12;;;;;;;3.40;3.30;;;;;;;20.42;58.58;99208.53;5960712;30;20200;-77
2021/07/30 11:30:17;;;;;;;1.50;1.50;;;;;;;20.59;59.67;99208.59;5959913;30;20259;-76
2021/07/30 11:33:25;;;;;;;2.33;2.33;;;;;;;20.69;60.00;99205.53;5961516;30;20221;-78
2021/07/30 11:36:29;;;;;;;2.20;2.00;;;;;;;20.65;59.97;99212.84;5961421;29;20271;-77
2021/07/30 11:39:38;;;;;;;2.85;1.73;;;;;;;20.80;58.99;99215.16;5959787;30;20225;-78
2021/07/30 11:42:42;;;;;;;1.00;1.00;;;;;;;20.72;59.24;99210.44;5960863;30;20236;-78
2021/07/30 11:45:48;;;;;;;3.08;0.93;;;;;;;20.74;58.03;99210.91;5960572;30;20278;-76
2021/07/30 11:48:52;;;;;;;0.70;0.70;;;;;;;20.81;58.87;99216.78;5958790;29;20290;-76
2021/07/30 11:51:57;;;;;;;0.73;0.73;;;;;;;20.76;58.60;99219.72;5959193;30;20414;-77
2021/07/30 11:55:15;;;;;;;1.92;0.75;;;;;;;20.85;58.94;99234.41;5960620;30;20193;-75
2021/07/30 11:58:21;;;;;;;1.25;1.25;;;;;;;20.87;58.55;99236.88;5960397;30;20193;-76
2021/07/30 12:01:27;;;;;;;1.20;1.10;;;;;;;20.95;59.65;99228.56;5959189;30;20522;-76
2021/07/30 12:04:35;;;;;;;0.90;0.90;;;;;;;20.88;61.21;99244.84;5958871;30;20302;-76
2021/07/30 12:07:40;;;;;;;0.80;0.80;;;;;;;20.95;60.82;99239.66;5959885;29;20206;-76
2021/07/30 12:10:46;;;;;;;0.80;0.80;;;;;;;20.81;60.55;99238.97;5959597;30;20201;-76
2021/07/30 12:13:54;;;;;;;0.75;0.75;;;;;;;20.89;60.42;99235.41;5958694;30;20256;-76
2021/07/30 12:17:01;;;;;;;0.80;0.80;;;;;;;20.91;59.48;99226.75;5959831;30;20269;-76
2021/07/30 12:20:08;;;;;;;0.80;0.80;;;;;;;21.09;60.02;99226.50;5958763;30;20501;-76
2021/07/30 12:23:16;;;;;;;1.50;0.90;;;;;;;21.10;60.18;99230.91;5958030;29;20198;-76
2021/07/30 12:26:30;;;;;;;1.75;1.30;;;;;;;21.14;60.37;99226.31;5959270;30;20194;-76
2021/07/30 12:29:40;;;;;;;1.83;1.00;;;;;;;21.16;60.64;99235.13;5959718;30;20225;-76
2021/07/30 12:32:47;;;;;;;2.38;1.13;;;;;;;21.13;61.06;99241.31;5958742;30;20221;-76
2021/07/30 12:36:02;;;;;;;3.00;0.73;;;;;;;21.03;61.14;99240.81;5958981;30;20198;-76
2021/07/30 12:39:07;;;;;;;0.77;0.77;;;;;;;20.98;60.57;99243.75;5959410;30;20194;-76
2021/07/30 12:42:22;;;;;;;0.88;0.88;;;;;;;20.98;61.10;99255.63;5959086;29;20194;-76
2021/07/30 12:45:39;;;;;;;0.90;0.90;;;;;;;21.03;61.79;99241.59;5958176;30;20461;-76
2021/07/30 12:52:16;;;;;;;1.08;0.95;;;;;;;21.32;61.82;99242.97;5957910;30;20258;-76
2021/07/30 12:55:20;;;;;;;1.00;1.00;;;;;;;21.32;60.50;99254.06;5958999;30;20226;-76
2021/07/30 12:58:25;;;;;;;0.98;0.98;;;;;;;21.49;60.26;99248.53;5958366;30;20434;-76
2021/07/30 13:01:31;;;;;;;1.17;1.17;;;;;;;21.55;59.94;99244.44;5958521;30;20198;-76
2021/07/30 13:04:37;;;;;;;1.08;0.95;;;;;;;21.77;58.92;99249.81;5958152;30;20237;-76
2021/07/30 13:07:41;;;;;;;2.63;2.53;;;;;;;21.82;58.47;99252.44;5957950;29;20293;-77
2021/07/30 13:10:46;;;;;;;3.17;2.97;;;;;;;21.92;58.01;99254.88;5958457;30;20194;-77
2021/07/30 13:13:50;;;;;;;3.42;3.13;;;;;;;21.99;57.25;99249.63;5957307;30;20521;-76
2021/07/30 13:16:54;;;;;;;1.20;1.10;;;;;;;21.79;58.31;99269.72;5958143;30;20194;-76
2021/07/30 13:20:00;;;;;;;0.80;0.80;;;;;;;21.55;57.45;99280.50;5958237;29;20193;-76
2021/07/30 13:23:06;;;;;;;1.00;1.00;;;;;;;21.36;57.02;99282.81;5957342;30;20202;-76
2021/07/30 13:26:12;;;;;;;1.40;1.10;;;;;;;20.91;56.19;99277.47;5958282;30;20194;-76
2021/07/30 13:29:16;;;;;;;0.73;0.73;;;;;;;20.79;57.31;99285.59;5957224;29;20532;-77
2021/07/30 13:32:20;;;;;;;0.82;0.82;;;;;;;20.99;57.15;99278.63;5957288;29;20193;-75
2021/07/30 13:35:26;;;;;;;0.80;0.80;;;;;;;21.09;57.74;99284.72;5956905;29;20233;-76
2021/07/30 13:38:33;;;;;;;2.00;1.00;;;;;;;21.18;57.54;99281.97;5958189;30;20307;-76
2021/07/30 13:41:38;;;;;;;0.80;0.80;;;;;;;21.08;56.89;99288.63;5957091;30;20550;-76
2021/07/30 13:44:42;;;;;;;0.90;0.90;;;;;;;21.40;55.45;99283.78;5958103;30;20248;-76
2021/07/30 13:47:48;;;;;;;0.82;0.82;;;;;;;21.47;55.95;99311.88;5957153;29;20213;-76
2021/07/30 13:50:56;;;;;;;0.80;0.80;;;;;;;21.23;55.94;99306.78;5958017;29;20225;-76
2021/07/30 13:54:00;;;;;;;0.73;0.73;;;;;;;21.05;56.27;99318.94;5958127;30;20249;-76
2021/07/30 13:57:08;;;;;;;2.30;1.00;;;;;;;20.92;60.24;99331.78;5957836;30;20194;-75
2021/07/30 14:00:13;;;;;;;2.00;1.00;;;;;;;20.53;62.10;99331.78;5957388;30;20200;-76
2021/07/30 14:03:17;;;;;;;1.35;1.25;;;;;;;20.56;64.37;99315.34;5957832;30;20252;-75
2021/07/30 14:06:23;;;;;;;1.20;1.10;;;;;;;20.65;64.70;99318.13;5955738;30;20216;-75
2021/07/30 14:09:27;;;;;;;0.90;0.90;;;;;;;20.58;66.44;99317.78;5957292;29;20508;-75
2021/07/30 14:12:31;;;;;;;1.05;1.05;;;;;;;20.62;67.95;99323.50;5956985;30;20194;-76
2021/07/30 14:15:36;;;;;;;3.45;1.40;;;;;;;20.77;68.63;99329.44;5957176;30;20297;-76
2021/07/30 14:18:40;;;;;;;1.20;1.20;;;;;;;20.67;69.92;99329.72;5956700;29;20277;-75
2021/07/30 14:21:46;;;;;;;1.00;1.00;;;;;;;20.61;68.46;99328.22;5955561;30;20392;-75
2021/07/30 14:24:50;;;;;;;1.38;1.38;;;;;;;20.69;69.73;99319.13;5955758;29;20458;-75
2021/07/30 14:27:54;;;;;;;1.38;1.00;;;;;;;20.76;69.80;99325.03;5955433;29;20234;-75
2021/07/30 14:30:58;;;;;;;1.30;1.17;;;;;;;20.88;68.36;99322.44;5956462;30;20262;-75
2021/07/30 14:34:03;;;;;;;1.23;1.02;;;;;;;21.02;69.03;99323.16;5955351;30;20462;-76
2021/07/30 14:37:09;;;;;;;1.95;1.20;;;;;;;21.04;70.73;99322.84;5955154;30;20251;-76
2021/07/30 14:40:17;;;;;;;1.13;0.98;;;;;;;20.97;70.80;99320.53;5955133;30;20194;-76
2021/07/30 14:43:22;;;;;;;1.00;1.00;;;;;;;20.88;66.89;99330.78;5955586;29;20258;-76